createdAt,value
2022-10-20T00:00:52.641Z,9.36
2022-10-20T00:01:52.630Z,9.34
2022-10-20T00:02:52.679Z,9.29
2022-10-20T00:03:52.629Z,9.23
2022-10-20T00:04:52.639Z,9.21
2022-10-20T00:05:52.642Z,9.23
2022-10-20T00:06:52.648Z,9.26
2022-10-20T00:07:52.655Z,9.26
2022-10-20T00:08:52.712Z,9.36
2022-10-20T00:09:52.664Z,9.36
2022-10-20T00:11:58.059Z,9.23
2022-10-20T00:12:52.667Z,9.28
2022-10-20T00:13:52.677Z,9.23
2022-10-20T00:14:52.681Z,9.26
2022-10-20T00:15:52.684Z,9.21
2022-10-20T00:16:52.706Z,9.25
2022-10-20T00:17:52.684Z,9.18
2022-10-20T00:18:52.691Z,9.18
2022-10-20T00:19:52.711Z,9.08
2022-10-20T00:20:52.706Z,9.13
2022-10-20T00:21:52.713Z,9.06
2022-10-20T00:22:52.720Z,9.10
2022-10-20T00:23:52.708Z,9.19
2022-10-20T00:24:52.721Z,9.11
2022-10-20T00:25:52.726Z,9.10
2022-10-20T00:26:52.724Z,9.10
2022-10-20T00:27:52.724Z,9.10
2022-10-20T00:28:52.730Z,8.99
2022-10-20T00:29:52.742Z,9.10
2022-10-20T00:30:52.738Z,9.11
2022-10-20T00:31:52.750Z,9.16
2022-10-20T00:32:52.767Z,9.18
2022-10-20T00:33:52.758Z,9.11
2022-10-20T00:34:52.752Z,9.16
2022-10-20T00:35:52.769Z,9.16
2022-10-20T00:36:52.763Z,9.11
2022-10-20T00:37:52.774Z,9.11
2022-10-20T00:38:52.767Z,9.00
2022-10-20T00:39:52.780Z,8.95
2022-10-20T00:40:52.775Z,9.08
2022-10-20T00:41:52.790Z,9.03
2022-10-20T00:42:52.790Z,9.00
2022-10-20T00:43:52.796Z,9.08
2022-10-20T00:44:52.799Z,8.91
2022-10-20T00:45:52.796Z,9.08
2022-10-20T00:46:52.801Z,9.02
2022-10-20T00:47:52.804Z,9.06
2022-10-20T00:48:52.829Z,9.13
2022-10-20T00:49:52.810Z,8.95
2022-10-20T00:50:52.814Z,8.97
2022-10-20T00:51:52.824Z,9.06
2022-10-20T00:52:52.830Z,9.10
2022-10-20T00:53:52.825Z,9.19
2022-10-20T00:54:52.837Z,9.22
2022-10-20T00:55:52.840Z,9.16
2022-10-20T00:56:52.960Z,9.21
2022-10-20T00:57:52.841Z,9.23
2022-10-20T00:58:52.846Z,9.28
2022-10-20T00:59:52.847Z,9.25
2022-10-20T01:00:52.855Z,9.23
2022-10-20T01:01:52.950Z,9.28
2022-10-20T01:02:52.868Z,9.28
2022-10-20T01:03:52.875Z,9.28
2022-10-20T01:04:52.894Z,9.22
2022-10-20T01:05:52.880Z,9.22
2022-10-20T01:06:52.875Z,9.19
2022-10-20T01:07:52.890Z,9.13
2022-10-20T01:08:52.938Z,9.18
2022-10-20T01:09:52.899Z,9.14
2022-10-20T01:10:52.890Z,8.95
2022-10-20T01:11:52.896Z,9.02
2022-10-20T01:12:52.906Z,9.06
2022-10-20T01:13:52.904Z,9.11
2022-10-20T01:14:52.905Z,8.97
2022-10-20T01:15:52.911Z,8.94
2022-10-20T01:16:52.914Z,8.84
2022-10-20T01:17:52.919Z,8.88
2022-10-20T01:18:52.930Z,8.94
2022-10-20T01:19:52.928Z,8.89
2022-10-20T01:20:52.958Z,8.89
2022-10-20T01:21:52.940Z,8.88
2022-10-20T01:22:52.946Z,8.91
2022-10-20T01:23:52.947Z,8.87
2022-10-20T01:24:52.945Z,8.88
2022-10-20T01:25:52.955Z,8.89
2022-10-20T01:26:52.959Z,8.89
2022-10-20T01:27:52.954Z,8.88
2022-10-20T01:28:52.960Z,8.87
2022-10-20T01:29:52.963Z,8.81
2022-10-20T01:30:52.966Z,8.79
2022-10-20T01:31:52.976Z,8.71
2022-10-20T01:32:52.982Z,8.70
2022-10-20T01:33:52.985Z,8.69
2022-10-20T01:34:53.308Z,8.67
2022-10-20T01:35:52.984Z,8.71
2022-10-20T01:36:53.019Z,8.70
2022-10-20T01:37:53.257Z,8.70
2022-10-20T01:38:52.996Z,8.76
2022-10-20T01:39:53.009Z,8.73
2022-10-20T01:40:53.010Z,8.78
2022-10-20T01:41:53.015Z,8.74
2022-10-20T01:42:53.018Z,8.74
2022-10-20T01:43:53.023Z,8.74
2022-10-20T01:44:53.022Z,8.76
2022-10-20T01:45:53.023Z,8.76
2022-10-20T01:46:53.032Z,8.79
2022-10-20T01:47:53.030Z,8.71
2022-10-20T01:48:53.039Z,8.76
2022-10-20T01:49:53.038Z,8.78
2022-10-20T01:50:53.039Z,8.78
2022-10-20T01:51:53.046Z,8.71
2022-10-20T01:52:53.069Z,8.63
2022-10-20T01:53:53.061Z,8.64
2022-10-20T01:54:53.055Z,8.61
2022-10-20T01:55:53.065Z,8.53
2022-10-20T01:56:53.070Z,8.49
2022-10-20T01:57:53.065Z,8.48
2022-10-20T01:58:53.070Z,8.46
2022-10-20T01:59:53.081Z,8.45
2022-10-20T02:00:53.120Z,8.52
2022-10-20T02:01:53.109Z,8.46
2022-10-20T02:02:53.091Z,8.52
2022-10-20T02:03:53.093Z,8.51
2022-10-20T02:04:53.100Z,8.49
2022-10-20T02:05:53.102Z,8.55
2022-10-20T02:06:53.106Z,8.52
2022-10-20T02:07:53.108Z,8.51
2022-10-20T02:08:53.178Z,8.52
2022-10-20T02:10:53.120Z,8.51
2022-10-20T02:11:53.123Z,8.46
2022-10-20T02:12:53.119Z,8.45
2022-10-20T02:13:53.132Z,8.51
2022-10-20T02:14:53.126Z,8.55
2022-10-20T02:15:53.132Z,8.48
2022-10-20T02:16:53.132Z,8.52
2022-10-20T02:17:53.138Z,8.48
2022-10-20T02:18:53.196Z,8.52
2022-10-20T02:19:53.143Z,8.45
2022-10-20T02:20:53.149Z,8.42
2022-10-20T02:21:53.158Z,8.42
2022-10-20T02:22:53.155Z,8.52
2022-10-20T02:23:53.157Z,8.46
2022-10-20T02:24:53.191Z,8.44
2022-10-20T02:25:53.166Z,8.49
2022-10-20T02:26:53.177Z,8.48
2022-10-20T02:27:53.233Z,8.56
2022-10-20T02:28:53.195Z,8.51
2022-10-20T02:29:53.180Z,8.49
2022-10-20T02:30:53.189Z,8.51
2022-10-20T02:31:53.188Z,8.58
2022-10-20T02:32:53.196Z,8.66
2022-10-20T02:33:53.204Z,8.64
2022-10-20T02:34:53.196Z,8.69
2022-10-20T02:35:53.209Z,8.66
2022-10-20T02:36:53.211Z,8.69
2022-10-20T02:37:53.217Z,8.64
2022-10-20T02:38:53.217Z,8.64
2022-10-20T02:39:53.216Z,8.58
2022-10-20T02:40:53.239Z,8.58
2022-10-20T02:41:53.231Z,8.53
2022-10-20T02:42:53.236Z,8.46
2022-10-20T02:43:53.230Z,8.44
2022-10-20T02:44:53.232Z,8.42
2022-10-20T02:45:53.237Z,8.48
2022-10-20T02:46:53.239Z,8.52
2022-10-20T02:47:53.241Z,8.49
2022-10-20T02:48:53.254Z,8.52
2022-10-20T02:49:53.257Z,8.49
2022-10-20T02:50:53.261Z,8.48
2022-10-20T02:51:53.257Z,8.51
2022-10-20T02:52:53.268Z,8.45
2022-10-20T02:53:53.263Z,8.45
2022-10-20T02:54:53.276Z,8.42
2022-10-20T02:55:53.269Z,8.41
2022-10-20T02:56:53.304Z,8.41
2022-10-20T02:57:53.284Z,8.41
2022-10-20T02:58:53.287Z,8.38
2022-10-20T02:59:53.283Z,8.44
2022-10-20T03:00:53.295Z,8.46
2022-10-20T03:01:53.359Z,8.42
2022-10-20T03:02:53.295Z,8.45
2022-10-20T03:03:53.300Z,8.52
2022-10-20T03:04:53.300Z,8.38
2022-10-20T03:05:53.306Z,8.41
2022-10-20T03:06:53.319Z,8.49
2022-10-20T03:07:53.320Z,8.53
2022-10-20T03:08:53.366Z,8.51
2022-10-20T03:09:53.319Z,8.52
2022-10-20T03:10:53.321Z,8.51
2022-10-20T03:11:53.325Z,8.46
2022-10-20T03:12:53.355Z,8.51
2022-10-20T03:13:53.335Z,8.49
2022-10-20T03:14:53.341Z,8.46
2022-10-20T03:15:53.339Z,8.37
2022-10-20T03:16:53.343Z,8.46
2022-10-20T03:17:53.347Z,8.49
2022-10-20T03:18:53.348Z,8.45
2022-10-20T03:19:53.354Z,8.42
2022-10-20T03:20:53.362Z,8.44
2022-10-20T03:21:53.358Z,8.45
2022-10-20T03:22:53.361Z,8.45
2022-10-20T03:23:53.371Z,8.44
2022-10-20T03:24:53.370Z,8.44
2022-10-20T03:25:53.380Z,8.42
2022-10-20T03:26:53.385Z,8.31
2022-10-20T03:27:53.377Z,8.28
2022-10-20T03:28:53.411Z,8.30
2022-10-20T03:29:53.392Z,8.31
2022-10-20T03:30:53.396Z,8.33
2022-10-20T03:31:53.393Z,8.28
2022-10-20T03:32:53.396Z,8.24
2022-10-20T03:33:53.398Z,8.34
2022-10-20T03:34:53.410Z,8.28
2022-10-20T03:35:53.405Z,8.26
2022-10-20T03:36:53.418Z,8.30
2022-10-20T03:37:53.419Z,8.24
2022-10-20T03:38:53.416Z,8.20
2022-10-20T03:39:53.420Z,8.15
2022-10-20T03:40:53.489Z,8.15
2022-10-20T03:41:53.436Z,8.03
2022-10-20T03:42:53.437Z,8.00
2022-10-20T03:43:53.433Z,8.03
2022-10-20T03:44:53.457Z,8.06
2022-10-20T03:45:53.439Z,8.01
2022-10-20T03:46:53.441Z,7.95
2022-10-20T03:47:53.445Z,7.87
2022-10-20T03:48:53.449Z,7.88
2022-10-20T03:49:53.520Z,7.83
2022-10-20T03:50:53.455Z,7.90
2022-10-20T03:51:53.467Z,7.90
2022-10-20T03:52:53.463Z,7.88
2022-10-20T03:53:53.482Z,7.88
2022-10-20T03:54:53.477Z,7.77
2022-10-20T03:55:53.479Z,7.76
2022-10-20T03:56:53.474Z,7.90
2022-10-20T03:57:53.486Z,7.76
2022-10-20T03:58:53.542Z,7.83
2022-10-20T03:59:53.484Z,7.82
2022-10-20T04:00:53.515Z,7.73
2022-10-20T04:01:53.566Z,7.70
2022-10-20T04:02:53.493Z,7.82
2022-10-20T04:03:53.497Z,7.91
2022-10-20T04:04:53.499Z,7.87
2022-10-20T04:05:53.505Z,7.87
2022-10-20T04:06:53.512Z,7.90
2022-10-20T04:07:53.510Z,7.83
2022-10-20T04:08:53.567Z,7.87
2022-10-20T04:09:53.519Z,7.76
2022-10-20T04:10:53.525Z,7.90
2022-10-20T04:11:53.522Z,7.88
2022-10-20T04:12:53.525Z,7.88
2022-10-20T04:13:53.528Z,7.88
2022-10-20T04:14:53.532Z,7.91
2022-10-20T04:15:53.534Z,7.88
2022-10-20T04:16:53.559Z,7.87
2022-10-20T04:17:53.542Z,7.87
2022-10-20T04:18:53.552Z,7.91
2022-10-20T04:19:53.553Z,7.87
2022-10-20T04:20:53.551Z,7.91
2022-10-20T04:21:53.553Z,7.90
2022-10-20T04:22:53.564Z,7.77
2022-10-20T04:23:53.559Z,7.88
2022-10-20T04:24:53.571Z,7.87
2022-10-20T04:25:53.574Z,7.83
2022-10-20T04:26:53.571Z,7.87
2022-10-20T04:27:53.578Z,7.87
2022-10-20T04:28:53.577Z,7.87
2022-10-20T04:29:53.584Z,7.82
2022-10-20T04:30:53.589Z,7.83
2022-10-20T04:31:53.593Z,7.73
2022-10-20T04:32:53.607Z,7.75
2022-10-20T04:33:53.591Z,7.73
2022-10-20T04:34:53.600Z,7.69
2022-10-20T04:35:53.599Z,7.72
2022-10-20T04:36:53.606Z,7.66
2022-10-20T04:37:53.604Z,7.63
2022-10-20T04:38:53.612Z,7.75
2022-10-20T04:39:53.611Z,7.75
2022-10-20T04:40:53.612Z,7.75
2022-10-20T04:41:53.617Z,7.66
2022-10-20T04:42:53.618Z,7.63
2022-10-20T04:43:53.624Z,7.61
2022-10-20T04:44:53.728Z,7.61
2022-10-20T04:45:53.637Z,7.60
2022-10-20T04:46:53.629Z,7.57
2022-10-20T04:47:53.633Z,7.51
2022-10-20T04:48:53.713Z,7.56
2022-10-20T04:49:53.640Z,7.50
2022-10-20T04:50:53.654Z,7.48
2022-10-20T04:51:57.390Z,7.54
2022-10-20T04:52:53.655Z,7.53
2022-10-20T04:53:53.719Z,7.53
2022-10-20T04:54:53.655Z,7.51
2022-10-20T04:55:53.657Z,7.57
2022-10-20T04:56:53.661Z,7.56
2022-10-20T04:57:53.663Z,7.56
2022-10-20T04:58:53.674Z,7.54
2022-10-20T04:59:53.669Z,7.54
2022-10-20T05:00:53.680Z,7.57
2022-10-20T05:01:53.708Z,7.53
2022-10-20T05:02:53.687Z,7.50
2022-10-20T05:03:53.680Z,7.54
2022-10-20T05:04:53.704Z,7.61
2022-10-20T05:05:53.696Z,7.63
2022-10-20T05:06:53.698Z,7.58
2022-10-20T05:07:53.702Z,7.60
2022-10-20T05:08:53.811Z,7.60
2022-10-20T05:09:53.709Z,7.69
2022-10-20T05:10:53.707Z,7.60
2022-10-20T05:11:53.706Z,7.60
2022-10-20T05:12:53.714Z,7.60
2022-10-20T05:13:53.719Z,7.61
2022-10-20T05:14:53.719Z,7.63
2022-10-20T05:15:53.720Z,7.54
2022-10-20T05:16:53.730Z,7.60
2022-10-20T05:17:53.722Z,7.69
2022-10-20T05:18:53.731Z,7.69
2022-10-20T05:19:53.737Z,7.63
2022-10-20T05:21:10.132Z,7.66
2022-10-20T05:21:53.741Z,7.57
2022-10-20T05:22:53.744Z,7.58
2022-10-20T05:23:53.740Z,7.57
2022-10-20T05:24:53.743Z,7.57
2022-10-20T05:25:53.746Z,7.58
2022-10-20T05:26:53.757Z,7.61
2022-10-20T05:27:53.758Z,7.60
2022-10-20T05:28:53.764Z,7.63
2022-10-20T05:29:53.759Z,7.66
2022-10-20T05:30:55.590Z,7.54
2022-10-20T05:31:53.764Z,7.50
2022-10-20T05:32:53.775Z,7.54
2022-10-20T05:33:53.775Z,7.43
2022-10-20T05:34:53.771Z,7.43
2022-10-20T05:35:53.784Z,7.39
2022-10-20T05:36:53.805Z,7.47
2022-10-20T05:37:53.781Z,7.40
2022-10-20T05:38:53.791Z,7.42
2022-10-20T05:39:53.797Z,7.39
2022-10-20T05:40:53.790Z,7.42
2022-10-20T05:41:53.795Z,7.47
2022-10-20T05:42:53.795Z,7.48
2022-10-20T05:43:53.806Z,7.40
2022-10-20T05:44:53.800Z,7.48
2022-10-20T05:45:53.804Z,7.40
2022-10-20T05:46:53.813Z,7.43
2022-10-20T05:47:53.810Z,7.45
2022-10-20T05:48:53.821Z,7.47
2022-10-20T05:49:53.824Z,7.40
2022-10-20T05:50:53.825Z,7.43
2022-10-20T05:51:53.829Z,7.51
2022-10-20T05:52:53.854Z,7.60
2022-10-20T05:53:53.829Z,7.54
2022-10-20T05:54:53.831Z,7.58
2022-10-20T05:55:53.842Z,7.66
2022-10-20T05:56:53.836Z,7.63
2022-10-20T05:57:53.845Z,7.60
2022-10-20T05:58:53.842Z,7.66
2022-10-20T05:59:53.843Z,7.70
2022-10-20T06:00:53.855Z,7.72
2022-10-20T06:01:53.852Z,7.76
2022-10-20T06:02:53.861Z,7.77
2022-10-20T06:03:53.864Z,7.76
2022-10-20T06:04:53.866Z,7.76
2022-10-20T06:05:53.862Z,7.76
2022-10-20T06:06:53.872Z,7.76
2022-10-20T06:07:53.867Z,7.76
2022-10-20T06:08:53.999Z,7.72
2022-10-20T06:09:53.874Z,7.72
2022-10-20T06:10:53.884Z,7.70
2022-10-20T06:11:53.885Z,7.70
2022-10-20T06:12:53.890Z,7.76
2022-10-20T06:13:53.892Z,7.69
2022-10-20T06:14:53.887Z,7.75
2022-10-20T06:15:53.890Z,7.66
2022-10-20T06:16:53.892Z,7.67
2022-10-20T06:17:53.899Z,7.70
2022-10-20T06:18:53.897Z,7.56
2022-10-20T06:19:53.902Z,7.63
2022-10-20T06:20:53.911Z,7.66
2022-10-20T06:21:53.916Z,7.56
2022-10-20T06:22:53.917Z,7.61
2022-10-20T06:23:53.914Z,7.57
2022-10-20T06:24:53.939Z,7.63
2022-10-20T06:25:53.922Z,7.63
2022-10-20T06:26:53.929Z,7.58
2022-10-20T06:27:53.926Z,7.63
2022-10-20T06:28:53.934Z,7.57
2022-10-20T06:29:53.935Z,7.58
2022-10-20T06:30:53.936Z,7.60
2022-10-20T06:31:53.943Z,7.60
2022-10-20T06:32:53.950Z,7.58
2022-10-20T06:33:53.944Z,7.58
2022-10-20T06:34:53.954Z,7.67
2022-10-20T06:35:53.949Z,7.61
2022-10-20T06:36:53.954Z,7.57
2022-10-20T06:37:53.964Z,7.53
2022-10-20T06:38:53.959Z,7.53
2022-10-20T06:39:53.967Z,7.58
2022-10-20T06:40:53.995Z,7.54
2022-10-20T06:41:53.973Z,7.57
2022-10-20T06:43:53.981Z,7.51
2022-10-20T06:44:53.986Z,7.40
2022-10-20T06:45:53.980Z,7.50
2022-10-20T06:46:53.984Z,7.39
2022-10-20T06:47:53.986Z,7.43
2022-10-20T06:48:57.899Z,7.36
2022-10-20T06:49:53.993Z,7.42
2022-10-20T06:50:53.997Z,7.42
2022-10-20T06:51:54.021Z,7.51
2022-10-20T06:52:54.002Z,7.39
2022-10-20T06:53:54.009Z,7.54
2022-10-20T06:54:54.014Z,7.54
2022-10-20T06:55:54.019Z,7.54
2022-10-20T06:56:54.043Z,7.54
2022-10-20T06:57:54.019Z,7.50
2022-10-20T06:58:54.023Z,7.45
2022-10-20T06:59:54.024Z,7.58
2022-10-20T07:00:54.026Z,7.53
2022-10-20T07:01:54.087Z,7.47
2022-10-20T07:02:54.036Z,7.43
2022-10-20T07:03:54.043Z,7.50
2022-10-20T07:04:54.041Z,7.43
2022-10-20T07:05:54.050Z,7.43
2022-10-20T07:06:54.045Z,7.56
2022-10-20T07:07:54.057Z,7.48
2022-10-20T07:08:54.087Z,7.54
2022-10-20T07:09:54.063Z,7.57
2022-10-20T07:10:54.061Z,7.61
2022-10-20T07:11:54.069Z,7.61
2022-10-20T07:12:54.093Z,7.61
2022-10-20T07:13:54.070Z,7.70
2022-10-20T07:14:54.080Z,7.73
2022-10-20T07:15:54.084Z,7.73
2022-10-20T07:16:54.078Z,7.87
2022-10-20T07:17:54.087Z,7.85
2022-10-20T07:18:54.088Z,7.75
2022-10-20T07:19:54.091Z,7.83
2022-10-20T07:20:54.099Z,7.73
2022-10-20T07:21:54.097Z,7.75
2022-10-20T07:22:54.100Z,7.75
2022-10-20T07:23:54.109Z,7.72
2022-10-20T07:24:54.108Z,7.76
2022-10-20T07:25:54.116Z,7.73
2022-10-20T07:26:54.113Z,7.73
2022-10-20T07:27:54.117Z,7.73
2022-10-20T07:28:55.974Z,7.73
2022-10-20T07:29:54.123Z,7.76
2022-10-20T07:30:54.127Z,7.87
2022-10-20T07:31:55.314Z,7.90
2022-10-20T07:32:54.147Z,7.77
2022-10-20T07:34:06.938Z,7.82
2022-10-20T07:34:54.141Z,7.90
2022-10-20T07:35:54.144Z,7.82
2022-10-20T07:36:54.161Z,7.88
2022-10-20T07:37:54.151Z,7.93
2022-10-20T07:38:54.162Z,7.83
2022-10-20T07:39:54.159Z,7.97
2022-10-20T07:40:55.648Z,7.94
2022-10-20T07:41:54.169Z,8.06
2022-10-20T07:42:54.176Z,8.00
2022-10-20T07:43:54.181Z,7.97
2022-10-20T07:44:54.204Z,8.01
2022-10-20T07:45:54.188Z,8.12
2022-10-20T07:46:54.184Z,8.10
2022-10-20T07:47:54.187Z,8.15
2022-10-20T07:48:54.196Z,8.15
2022-10-20T07:49:54.195Z,8.16
2022-10-20T07:50:54.204Z,8.24
2022-10-20T07:51:54.203Z,8.24
2022-10-20T07:52:54.213Z,8.30
2022-10-20T07:53:58.179Z,8.27
2022-10-20T07:55:02.475Z,8.26
2022-10-20T07:55:54.217Z,8.34
2022-10-20T07:56:54.234Z,8.38
2022-10-20T07:57:54.231Z,8.37
2022-10-20T07:58:54.227Z,8.51
2022-10-20T07:59:54.239Z,8.41
2022-10-20T08:00:54.259Z,8.38
2022-10-20T08:01:56.312Z,8.52
2022-10-20T08:02:54.250Z,8.52
2022-10-20T08:03:54.249Z,8.67
2022-10-20T08:04:54.257Z,8.61
2022-10-20T08:05:54.260Z,8.64
2022-10-20T08:06:54.267Z,8.71
2022-10-20T08:07:54.267Z,8.81
2022-10-20T08:08:54.301Z,8.84
2022-10-20T08:09:54.270Z,8.87
2022-10-20T08:10:54.274Z,8.87
2022-10-20T08:11:55.644Z,8.92
2022-10-20T08:12:54.293Z,9.06
2022-10-20T08:13:54.294Z,8.94
2022-10-20T08:14:55.778Z,9.10
2022-10-20T08:15:54.551Z,9.00
2022-10-20T08:16:54.389Z,9.06
2022-10-20T08:17:54.311Z,9.14
2022-10-20T08:20:54.322Z,9.23
2022-10-20T08:21:54.328Z,9.26
2022-10-20T08:22:54.322Z,9.32
2022-10-20T08:23:54.336Z,9.43
2022-10-20T08:24:54.340Z,9.47
2022-10-20T08:25:54.340Z,9.50
2022-10-20T08:26:54.347Z,9.68
2022-10-20T08:27:54.459Z,9.72
2022-10-20T08:28:54.358Z,9.69
2022-10-20T08:30:00.165Z,9.50
2022-10-20T08:30:54.359Z,9.55
2022-10-20T08:31:54.365Z,9.62
2022-10-20T08:32:54.394Z,9.73
2022-10-20T08:33:54.381Z,9.76
2022-10-20T08:34:54.385Z,9.79
2022-10-20T08:35:54.390Z,10.02
2022-10-20T08:36:54.395Z,10.19
2022-10-20T08:37:54.392Z,10.23
2022-10-20T08:38:54.405Z,10.17
2022-10-20T08:39:54.401Z,10.20
2022-10-20T08:40:54.415Z,10.22
2022-10-20T08:42:07.443Z,10.23
2022-10-20T08:42:54.418Z,10.19
2022-10-20T08:43:54.427Z,10.25
2022-10-20T08:44:54.427Z,10.25
2022-10-20T08:45:54.437Z,10.19
2022-10-20T08:46:54.444Z,10.20
2022-10-20T08:47:54.441Z,10.23
2022-10-20T08:48:54.478Z,10.16
2022-10-20T08:49:54.453Z,10.41
2022-10-20T08:50:54.457Z,10.51
2022-10-20T08:51:54.462Z,10.90
2022-10-20T08:52:54.467Z,11.25
2022-10-20T08:53:54.481Z,11.72
2022-10-20T08:54:54.485Z,11.90
2022-10-20T08:55:54.490Z,12.13
2022-10-20T08:56:54.495Z,12.47
2022-10-20T08:57:54.494Z,12.55
2022-10-20T08:58:54.504Z,12.61
2022-10-20T08:59:54.512Z,13.08
2022-10-20T09:00:54.521Z,13.81
2022-10-20T09:01:54.623Z,14.12
2022-10-20T09:02:54.526Z,14.70
2022-10-20T09:03:54.531Z,15.44
2022-10-20T09:04:54.716Z,16.09
2022-10-20T09:07:29.655Z,17.04
2022-10-20T09:42:52.773Z,20.58
2022-10-20T09:43:54.472Z,20.43
2022-10-20T09:44:52.775Z,20.29
2022-10-20T09:45:52.795Z,20.22
2022-10-20T09:46:52.799Z,20.37
2022-10-20T15:00:12.560Z,15.14
2022-10-20T15:01:12.544Z,15.07
2022-10-20T15:02:12.558Z,15.11
2022-10-20T15:03:12.645Z,15.11
2022-10-20T15:04:12.568Z,15.09
2022-10-20T15:05:12.584Z,15.07
2022-10-20T15:06:15.184Z,15.04
2022-10-20T15:07:12.614Z,15.07
2022-10-20T15:08:12.612Z,15.00
2022-10-20T15:09:17.685Z,14.99
2022-10-20T15:10:12.625Z,14.97
2022-10-20T15:11:12.633Z,14.94
2022-10-20T15:12:12.637Z,14.94
2022-10-20T15:13:12.654Z,14.96
2022-10-20T15:14:15.283Z,15.02
2022-10-20T15:27:09.992Z,14.77
2022-10-20T15:48:54.112Z,14.50
2022-10-20T15:49:54.147Z,14.50
2022-10-20T15:50:54.103Z,14.59
2022-10-20T15:51:54.111Z,14.58
2022-10-20T15:52:54.128Z,14.53
2022-10-20T15:55:11.747Z,14.41
2022-10-20T16:04:27.630Z,14.20
2022-10-20T16:05:27.623Z,14.22
2022-10-20T16:06:27.621Z,14.14
2022-10-20T16:07:27.636Z,14.12
2022-10-20T16:08:27.674Z,14.14
2022-10-20T16:09:27.652Z,14.08
2022-10-20T16:10:27.656Z,14.08
2022-10-20T16:11:27.665Z,14.05
2022-10-20T16:12:27.670Z,14.08
2022-10-20T16:13:27.675Z,14.04
2022-10-20T16:14:27.678Z,14.04
2022-10-20T16:15:30.431Z,13.96
2022-10-20T16:16:27.699Z,13.90
2022-10-20T16:17:27.707Z,13.90
2022-10-20T16:18:27.716Z,13.92
2022-10-20T16:19:27.721Z,13.92
2022-10-20T16:20:27.753Z,13.90
2022-10-20T16:21:27.736Z,13.92
2022-10-20T16:22:27.736Z,13.90
2022-10-20T16:23:27.750Z,13.89
2022-10-20T16:24:27.751Z,13.81
2022-10-20T16:25:27.765Z,13.87
2022-10-20T16:26:27.765Z,13.78
2022-10-20T16:28:25.343Z,13.74
2022-10-20T16:29:26.574Z,13.79
2022-10-20T16:30:25.359Z,13.77
2022-10-20T16:31:25.373Z,13.75
2022-10-20T16:33:07.921Z,13.78
2022-10-20T16:34:07.929Z,13.83
2022-10-20T16:35:07.928Z,13.79
2022-10-20T16:37:11.785Z,13.74
2022-10-20T16:38:07.949Z,13.83
2022-10-20T16:39:07.956Z,13.86
2022-10-20T16:40:07.970Z,13.77
2022-10-20T16:41:07.980Z,13.74
2022-10-20T16:42:07.985Z,13.79
2022-10-20T16:43:07.992Z,13.77
2022-10-20T16:44:07.991Z,13.78
2022-10-20T16:45:08.003Z,13.74
2022-10-20T16:46:08.033Z,13.75
2022-10-20T16:47:08.014Z,13.77
2022-10-20T16:48:08.020Z,13.68
2022-10-20T16:49:08.039Z,13.72
2022-10-20T16:50:08.043Z,13.67
2022-10-20T16:51:08.078Z,13.67
2022-10-20T16:52:08.074Z,13.65
2022-10-20T16:53:08.062Z,13.71
2022-10-20T16:54:08.060Z,13.72
2022-10-20T16:55:08.076Z,13.67
2022-10-20T16:56:08.082Z,13.70
2022-10-20T16:57:08.087Z,13.62
2022-10-20T16:58:08.090Z,13.70
2022-10-20T16:59:08.094Z,13.71
2022-10-20T17:00:08.107Z,13.68
2022-10-20T17:01:08.272Z,13.68
2022-10-20T17:02:08.126Z,13.71
2022-10-20T17:03:08.123Z,13.68
2022-10-20T17:04:08.128Z,13.65
2022-10-20T17:05:09.488Z,13.54
2022-10-20T17:06:08.149Z,13.65
2022-10-20T17:07:08.156Z,13.60
2022-10-20T17:08:08.178Z,13.63
2022-10-20T17:09:08.253Z,13.54
2022-10-20T17:10:08.174Z,13.60
2022-10-20T17:11:08.175Z,13.57
2022-10-20T17:12:08.190Z,13.50
2022-10-20T17:13:08.190Z,13.59
2022-10-20T17:14:08.203Z,13.54
2022-10-20T17:15:08.203Z,13.54
2022-10-20T17:16:08.210Z,13.59
2022-10-20T17:17:08.224Z,13.53
2022-10-20T17:18:08.232Z,13.56
2022-10-20T17:19:08.231Z,13.52
2022-10-20T17:20:08.238Z,13.59
2022-10-20T17:21:08.250Z,13.44
2022-10-20T17:22:08.252Z,13.44
2022-10-20T17:23:08.259Z,13.42
2022-10-20T17:24:08.291Z,13.53
2022-10-20T17:25:08.273Z,13.49
2022-10-20T17:26:08.280Z,13.56
2022-10-20T17:27:08.289Z,13.46
2022-10-20T17:28:08.302Z,13.59
2022-10-20T17:29:08.310Z,13.50
2022-10-20T17:30:08.306Z,13.44
2022-10-20T17:31:08.379Z,13.50
2022-10-20T17:32:08.321Z,13.56
2022-10-20T17:33:08.329Z,13.57
2022-10-20T17:34:08.334Z,13.53
2022-10-20T17:35:08.347Z,13.52
2022-10-20T17:36:08.350Z,13.42
2022-10-20T17:37:08.359Z,13.54
2022-10-20T17:38:08.363Z,13.50
2022-10-20T17:39:08.381Z,13.56
2022-10-20T17:40:08.486Z,13.49
2022-10-20T17:41:08.392Z,13.53
2022-10-20T17:42:08.394Z,13.56
2022-10-20T17:43:08.396Z,13.50
2022-10-20T17:44:08.406Z,13.49
2022-10-20T17:45:08.414Z,13.44
2022-10-20T17:46:08.414Z,13.39
2022-10-20T17:47:08.431Z,13.37
2022-10-20T17:48:08.426Z,13.31
2022-10-20T17:49:08.446Z,13.38
2022-10-20T17:51:08.448Z,13.42
2022-10-20T17:52:08.460Z,13.38
2022-10-20T17:53:08.468Z,13.37
2022-10-20T17:54:08.473Z,13.37
2022-10-20T17:55:08.476Z,13.33
2022-10-20T17:56:08.511Z,13.38
2022-10-20T17:57:08.495Z,13.38
2022-10-20T17:58:08.493Z,13.38
2022-10-20T17:59:08.663Z,13.38
2022-10-20T18:00:12.959Z,13.39
2022-10-20T18:01:08.580Z,13.35
2022-10-20T18:02:08.520Z,13.30
2022-10-20T18:03:08.533Z,13.41
2022-10-20T18:04:08.532Z,13.33
2022-10-20T18:05:08.541Z,13.44
2022-10-20T18:06:08.546Z,13.38
2022-10-20T18:07:08.555Z,13.39
2022-10-20T18:08:08.566Z,13.35
2022-10-20T18:09:08.631Z,13.31
2022-10-20T18:10:08.604Z,13.38
2022-10-20T18:11:08.588Z,13.38
2022-10-20T18:12:08.616Z,13.42
2022-10-20T18:13:08.592Z,13.39
2022-10-20T18:14:08.606Z,13.33
2022-10-20T18:15:08.604Z,13.37
2022-10-20T18:16:08.612Z,13.31
2022-10-20T18:17:08.617Z,13.31
2022-10-20T18:18:08.633Z,13.22
2022-10-20T18:19:08.638Z,13.19
2022-10-20T18:20:08.638Z,13.35
2022-10-20T18:21:08.653Z,13.22
2022-10-20T18:22:08.660Z,13.23
2022-10-20T18:23:08.661Z,13.16
2022-10-20T18:24:08.665Z,13.28
2022-10-20T18:25:08.677Z,13.33
2022-10-20T18:26:08.685Z,13.23
2022-10-20T18:27:08.683Z,13.22
2022-10-20T18:28:08.766Z,13.18
2022-10-20T18:29:08.704Z,13.18
2022-10-20T18:30:08.714Z,13.30
2022-10-20T18:31:08.717Z,13.20
2022-10-20T18:32:08.718Z,13.19
2022-10-20T18:33:08.725Z,13.22
2022-10-20T18:34:08.739Z,13.19
2022-10-20T18:35:08.790Z,13.27
2022-10-20T18:36:08.751Z,13.19
2022-10-20T18:37:08.751Z,13.23
2022-10-20T18:38:08.757Z,13.25
2022-10-20T18:39:08.771Z,13.25
2022-10-20T18:40:08.775Z,13.20
2022-10-20T18:41:08.783Z,13.19
2022-10-20T18:42:08.790Z,13.22
2022-10-20T18:43:08.799Z,13.23
2022-10-20T18:44:08.817Z,13.27
2022-10-20T18:45:08.811Z,13.19
2022-10-20T18:46:08.808Z,13.20
2022-10-20T18:47:08.823Z,13.18
2022-10-20T18:48:08.829Z,13.12
2022-10-20T18:49:08.839Z,13.19
2022-10-20T18:50:08.835Z,13.15
2022-10-20T18:51:08.849Z,13.18
2022-10-20T18:52:08.847Z,13.19
2022-10-20T18:53:08.864Z,13.15
2022-10-20T18:54:08.863Z,13.19
2022-10-20T18:55:08.866Z,13.11
2022-10-20T18:56:08.885Z,13.11
2022-10-20T18:57:08.880Z,13.16
2022-10-20T18:58:08.894Z,13.09
2022-10-20T18:59:08.891Z,13.12
2022-10-20T19:00:08.934Z,13.05
2022-10-20T19:01:08.944Z,13.04
2022-10-20T19:02:08.920Z,13.04
2022-10-20T19:03:08.918Z,13.05
2022-10-20T19:04:08.933Z,12.95
2022-10-20T19:05:08.938Z,12.95
2022-10-20T19:06:08.939Z,13.01
2022-10-20T19:07:08.955Z,12.98
2022-10-20T19:08:08.952Z,12.98
2022-10-20T19:09:09.013Z,12.95
2022-10-20T19:10:08.964Z,12.97
2022-10-20T19:11:08.973Z,12.98
2022-10-20T19:12:10.616Z,12.98
2022-10-20T19:13:08.988Z,12.97
2022-10-20T19:14:08.997Z,12.98
2022-10-20T19:15:08.995Z,12.98
2022-10-20T19:16:09.033Z,12.97
2022-10-20T19:17:09.006Z,13.01
2022-10-20T19:18:09.022Z,12.95
2022-10-20T19:19:09.034Z,13.01
2022-10-20T19:20:09.029Z,13.03
2022-10-20T19:21:09.063Z,13.01
2022-10-20T19:22:09.042Z,13.03
2022-10-20T19:23:09.056Z,13.05
2022-10-20T19:24:09.059Z,13.00
2022-10-20T19:25:09.059Z,12.95
2022-10-20T19:26:09.068Z,12.95
2022-10-20T19:27:37.765Z,13.01
2022-10-20T19:28:09.084Z,12.95
2022-10-20T19:29:09.085Z,12.94
2022-10-20T19:30:09.094Z,12.98
2022-10-20T19:31:18.311Z,13.00
2022-10-20T19:32:09.130Z,12.95
2022-10-20T19:33:09.118Z,12.93
2022-10-20T19:34:09.116Z,12.94
2022-10-20T19:35:09.130Z,12.97
2022-10-20T19:36:09.129Z,12.83
2022-10-20T19:37:09.157Z,12.95
2022-10-20T19:38:09.148Z,12.93
2022-10-20T19:39:09.148Z,12.94
2022-10-20T19:40:09.162Z,12.86
2022-10-20T19:41:09.167Z,12.94
2022-10-20T19:42:09.175Z,12.98
2022-10-20T19:43:09.173Z,12.91
2022-10-20T19:44:09.186Z,12.98
2022-10-20T19:45:09.188Z,12.95
2022-10-20T19:46:09.194Z,12.97
2022-10-20T19:47:09.197Z,12.80
2022-10-20T19:48:09.235Z,12.83
2022-10-20T19:49:09.215Z,12.80